Time;durP1;ratioP1;P1;durP2;ratioP2;P2;SDS_P1;SDS_P2;PMS_P1;PMS_P2;Temp;Humidity;BMP_temperature;BMP_pressure;BME280_temperature;BME280_humidity;BME280_pressure;Samples;Min_cycle;Max_cycle;Signal;HPM_P1;HPM_P2
2022/04/13 00:04:06;;;;;;;;;;;;;;;12.04;58.50391;101212.7;;;;-78
2022/04/13 00:06:43;;;;;;;12.7;6.2;;;;;;;;;;;;;-78
2022/04/13 00:09:06;;;;;;;;;;;;;;;12;58.52148;101219.3;;;;-78
2022/04/13 00:14:06;;;;;;;;;;;;;;;11.99;58.64355;101221.7;;;;-79
2022/04/13 00:19:06;;;;;;;;;;;;;;;11.99;58.77734;101227.1;;;;-79
2022/04/13 00:24:08;;;;;;;;;;;;;;;11.99;59.03418;101228.6;;;;-78
2022/04/13 00:29:06;;;;;;;;;;;;;;;11.99;59.21289;101229.5;;;;-79
2022/04/13 00:34:06;;;;;;;;;;;;;;;12.02;59.66406;101230.2;;;;-77
2022/04/13 00:36:42;;;;;;;11.7;5.6;;;;;;;;;;;;;-77
2022/04/13 00:39:07;;;;;;;;;;;;;;;12.04;59.7666;101235.5;;;;-79
2022/04/13 00:44:11;;;;;;;;;;;;;;;12.07;59.91699;101234;;;;-79
2022/04/13 00:49:07;;;;;;;;;;;;;;;12.1;59.98828;101237.6;;;;-78
2022/04/13 00:54:07;;;;;;;;;;;;;;;12.12;60.14648;101240.8;;;;-79
2022/04/13 00:59:09;;;;;;;;;;;;;;;12.13;59.95801;101244.8;;;;-77
2022/04/13 01:04:07;;;;;;;;;;;;;;;12.14;60.20508;101243.3;;;;-77
2022/04/13 01:06:45;;;;;;;9.3;4.4;;;;;;;;;;;;;-79
2022/04/13 01:09:06;;;;;;;;;;;;;;;12.16;60.31934;101247.5;;;;-79
2022/04/13 01:14:10;;;;;;;;;;;;;;;12.17;60.52246;101248.1;;;;-81
2022/04/13 01:19:13;;;;;;;;;;;;;;;12.18;60.12109;101248.3;;;;-79
2022/04/13 01:24:06;;;;;;;;;;;;;;;12.17;59.93066;101254.4;;;;-78
2022/04/13 01:29:06;;;;;;;;;;;;;;;12.17;59.85254;101257.1;;;;-79
2022/04/13 01:34:06;;;;;;;;;;;;;;;12.17;59.8418;101263.8;;;;-79
2022/04/13 01:36:47;;;;;;;8.1;3.9;;;;;;;;;;;;;-78
2022/04/13 01:39:07;;;;;;;;;;;;;;;12.19;59.73242;101271.1;;;;-78
2022/04/13 01:44:07;;;;;;;;;;;;;;;12.19;59.97754;101268.7;;;;-78
2022/04/13 01:49:06;;;;;;;;;;;;;;;12.19;60.00195;101268.8;;;;-80
2022/04/13 01:54:06;;;;;;;;;;;;;;;12.2;59.93457;101268.8;;;;-80
2022/04/13 01:59:07;;;;;;;;;;;;;;;12.2;59.97949;101265.9;;;;-79
2022/04/13 02:04:06;;;;;;;;;;;;;;;12.19;59.74316;101264.8;;;;-79
2022/04/13 02:06:45;;;;;;;7.3;3.4;;;;;;;;;;;;;-79
2022/04/13 02:09:06;;;;;;;;;;;;;;;12.16;60.1084;101269;;;;-78
2022/04/13 02:14:06;;;;;;;;;;;;;;;12.13;60.31543;101266.5;;;;-78
2022/04/13 02:19:07;;;;;;;;;;;;;;;12.13;60.70605;101272.2;;;;-75
2022/04/13 02:24:06;;;;;;;;;;;;;;;12.15;60.66602;101280.4;;;;-76
2022/04/13 02:29:06;;;;;;;;;;;;;;;12.15;60.97852;101286.5;;;;-74
2022/04/13 02:34:06;;;;;;;;;;;;;;;12.13;60.96387;101289.7;;;;-74
2022/04/13 02:36:46;;;;;;;7.1;3.3;;;;;;;;;;;;;-76
2022/04/13 02:39:06;;;;;;;;;;;;;;;12.14;60.81934;101285.7;;;;-75
2022/04/13 02:44:06;;;;;;;;;;;;;;;12.13;60.72852;101281.1;;;;-74
2022/04/13 02:49:06;;;;;;;;;;;;;;;12.13;60.77344;101283.7;;;;-75
2022/04/13 02:54:06;;;;;;;;;;;;;;;12.1;60.8252;101288.7;;;;-74
2022/04/13 02:59:06;;;;;;;;;;;;;;;12.09;60.74609;101290.1;;;;-74
2022/04/13 03:04:06;;;;;;;;;;;;;;;12.08;60.64355;101290.3;;;;-73
2022/04/13 03:06:48;;;;;;;7.5;3.1;;;;;;;;;;;;;-75
2022/04/13 03:09:07;;;;;;;;;;;;;;;12.06;60.54004;101304.9;;;;-74
2022/04/13 03:14:06;;;;;;;;;;;;;;;12.02;60.81445;101308.8;;;;-74
2022/04/13 03:19:06;;;;;;;;;;;;;;;11.99;60.7666;101311.8;;;;-75
2022/04/13 03:24:06;;;;;;;;;;;;;;;11.97;60.71875;101317.1;;;;-74
2022/04/13 03:29:06;;;;;;;;;;;;;;;11.96;60.91699;101318.3;;;;-73
2022/04/13 03:34:06;;;;;;;;;;;;;;;11.91;60.95508;101312.6;;;;-74
2022/04/13 03:36:49;;;;;;;5.7;2.7;;;;;;;;;;;;;-74
2022/04/13 03:39:06;;;;;;;;;;;;;;;11.87;61.06152;101319.6;;;;-76
2022/04/13 03:44:06;;;;;;;;;;;;;;;11.82;61.11035;101317.3;;;;-74
2022/04/13 03:49:06;;;;;;;;;;;;;;;11.79;61.22852;101335.9;;;;-75
2022/04/13 03:54:06;;;;;;;;;;;;;;;11.77;61.19336;101343.4;;;;-74
2022/04/13 03:59:07;;;;;;;;;;;;;;;11.77;61.28223;101336.4;;;;-73
2022/04/13 04:04:06;;;;;;;;;;;;;;;11.76;61.06934;101345.5;;;;-75
2022/04/13 04:06:51;;;;;;;5.3;2.7;;;;;;;;;;;;;-75
2022/04/13 04:09:06;;;;;;;;;;;;;;;11.77;61.19141;101345.4;;;;-74
2022/04/13 04:14:08;;;;;;;;;;;;;;;11.75;61.21289;101352.6;;;;-75
2022/04/13 04:19:06;;;;;;;;;;;;;;;11.73;61.44336;101351.5;;;;-74
2022/04/13 04:24:06;;;;;;;;;;;;;;;11.71;61.61816;101359.4;;;;-75
2022/04/13 04:29:06;;;;;;;;;;;;;;;11.69;61.91797;101355.5;;;;-75
2022/04/13 04:34:06;;;;;;;;;;;;;;;11.69;62.36426;101368.8;;;;-74
2022/04/13 04:36:52;;;;;;;9.5;3.9;;;;;;;;;;;;;-75
2022/04/13 04:39:07;;;;;;;;;;;;;;;11.71;62.72168;101369.4;;;;-75
2022/04/13 04:44:06;;;;;;;;;;;;;;;11.69;62.66504;101383.9;;;;-75
2022/04/13 04:49:06;;;;;;;;;;;;;;;11.72;63.40625;101390.3;;;;-75
2022/04/13 04:54:06;;;;;;;;;;;;;;;11.72;63.57227;101395;;;;-74
2022/04/13 04:59:06;;;;;;;;;;;;;;;11.72;64.07422;101406.7;;;;-74
2022/04/13 05:04:08;;;;;;;;;;;;;;;11.72;63.74121;101412.2;;;;-73
2022/04/13 05:06:53;;;;;;;12.2;5;;;;;;;;;;;;;-74
2022/04/13 05:09:07;;;;;;;;;;;;;;;11.73;63.95215;101422.3;;;;-74
2022/04/13 05:14:06;;;;;;;;;;;;;;;11.73;63.91895;101420.8;;;;-75
2022/04/13 05:19:07;;;;;;;;;;;;;;;11.73;63.96484;101421.4;;;;-75
2022/04/13 05:24:06;;;;;;;;;;;;;;;11.71;64.08496;101425.7;;;;-78
2022/04/13 05:29:06;;;;;;;;;;;;;;;11.69;63.90137;101432.3;;;;-76
2022/04/13 05:34:08;;;;;;;;;;;;;;;11.67;64.10059;101444.8;;;;-73
2022/04/13 05:36:55;;;;;;;11.8;5.5;;;;;;;;;;;;;-74
2022/04/13 05:39:08;;;;;;;;;;;;;;;11.67;64.23438;101452;;;;-76
2022/04/13 05:44:06;;;;;;;;;;;;;;;11.65;64.17578;101458.3;;;;-74
2022/04/13 05:49:06;;;;;;;;;;;;;;;11.66;64.08691;101462.2;;;;-76
2022/04/13 05:54:06;;;;;;;;;;;;;;;11.69;64.50293;101459.7;;;;-75
2022/04/13 05:59:06;;;;;;;;;;;;;;;11.73;64.56543;101472.3;;;;-74
2022/04/13 06:04:06;;;;;;;;;;;;;;;11.77;64.73828;101479.4;;;;-75
2022/04/13 06:06:57;;;;;;;10.4;5.5;;;;;;;;;;;;;-74
2022/04/13 06:09:06;;;;;;;;;;;;;;;11.81;64.67969;101485.9;;;;-74
2022/04/13 06:14:06;;;;;;;;;;;;;;;11.95;64.78711;101488.2;;;;-74
2022/04/13 06:19:06;;;;;;;;;;;;;;;12.12;64.63574;101496.3;;;;-76
2022/04/13 06:24:06;;;;;;;;;;;;;;;12.36;64.24512;101505.1;;;;-74
2022/04/13 06:29:06;;;;;;;;;;;;;;;12.55;63.69238;101513.3;;;;-75
2022/04/13 06:34:06;;;;;;;;;;;;;;;12.67;63.39844;101517.7;;;;-75
2022/04/13 06:36:57;;;;;;;11.5;5.4;;;;;;;;;;;;;-73
2022/04/13 06:39:06;;;;;;;;;;;;;;;12.76;63.94629;101529.2;;;;-75
2022/04/13 06:44:08;;;;;;;;;;;;;;;12.86;63.92871;101540.9;;;;-76
2022/04/13 06:49:06;;;;;;;;;;;;;;;13;63.91504;101543.5;;;;-75
2022/04/13 06:54:06;;;;;;;;;;;;;;;13.17;63.97363;101552.5;;;;-76
2022/04/13 06:59:07;;;;;;;;;;;;;;;13.39;64.15137;101556.1;;;;-76
2022/04/13 07:04:06;;;;;;;;;;;;;;;13.69;63.56738;101555.2;;;;-74
2022/04/13 07:06:58;;;;;;;11.2;5.3;;;;;;;;;;;;;-75
2022/04/13 07:09:11;;;;;;;;;;;;;;;13.89;63.07031;101557.8;;;;-74
2022/04/13 07:14:09;;;;;;;;;;;;;;;14.02;62.9873;101565.5;;;;-74
2022/04/13 07:19:07;;;;;;;;;;;;;;;14.08;62.93945;101574;;;;-75
2022/04/13 07:24:06;;;;;;;;;;;;;;;14.2;62.77832;101584.1;;;;-74
2022/04/13 07:29:06;;;;;;;;;;;;;;;14.38;62.66797;101579.5;;;;-74
2022/04/13 07:34:06;;;;;;;;;;;;;;;14.55;62.33301;101587.1;;;;-74
2022/04/13 07:37:02;;;;;;;11.7;5;;;;;;;;;;;;;-74
2022/04/13 07:39:06;;;;;;;;;;;;;;;14.69;62.11816;101593.7;;;;-74
2022/04/13 07:44:06;;;;;;;;;;;;;;;14.89;61.79785;101602.3;;;;-76
2022/04/13 07:49:08;;;;;;;;;;;;;;;15.15;61.54297;101607;;;;-74
2022/04/13 07:54:06;;;;;;;;;;;;;;;15.44;61.18848;101606.7;;;;-75
2022/04/13 07:59:08;;;;;;;;;;;;;;;15.67;60.64648;101608.8;;;;-75
2022/04/13 08:04:06;;;;;;;;;;;;;;;15.81;60.02344;101611.4;;;;-75
2022/04/13 08:07:02;;;;;;;8.9;4.3;;;;;;;;;;;;;-75
2022/04/13 08:09:06;;;;;;;;;;;;;;;15.88;59.48145;101621.1;;;;-75
2022/04/13 08:14:06;;;;;;;;;;;;;;;15.96;59.50195;101629.4;;;;-73
2022/04/13 08:19:06;;;;;;;;;;;;;;;16.06;59.57227;101638.4;;;;-73
2022/04/13 08:24:08;;;;;;;;;;;;;;;16.21;59.25488;101637.4;;;;-74
2022/04/13 08:29:06;;;;;;;;;;;;;;;16.34;59.02344;101645.2;;;;-75
2022/04/13 08:34:06;;;;;;;;;;;;;;;16.43;58.65137;101650.8;;;;-74
2022/04/13 08:37:03;;;;;;;11;3.9;;;;;;;;;;;;;-74
2022/04/13 08:39:13;;;;;;;;;;;;;;;16.46;58.67773;101655.3;;;;-75
2022/04/13 08:44:08;;;;;;;;;;;;;;;16.47;58.47656;101661;;;;-76
2022/04/13 08:49:08;;;;;;;;;;;;;;;16.46;58.71191;101662;;;;-75
2022/04/13 08:54:10;;;;;;;;;;;;;;;16.43;58.75391;101659.1;;;;-74
2022/04/13 08:59:15;;;;;;;;;;;;;;;16.43;59.03516;101661.5;;;;-78
2022/04/13 09:04:10;;;;;;;;;;;;;;;16.42;58.90918;101671.4;;;;-80
2022/04/13 09:07:07;;;;;;;9.4;3.6;;;;;;;;;;;;;-79
2022/04/13 09:09:08;;;;;;;;;;;;;;;16.4;59.26758;101671;;;;-80
2022/04/13 09:14:07;;;;;;;;;;;;;;;16.4;59.25781;101676.6;;;;-80
2022/04/13 09:19:06;;;;;;;;;;;;;;;16.44;59.25098;101680.5;;;;-78
2022/04/13 09:24:07;;;;;;;;;;;;;;;16.48;59.3125;101687.7;;;;-80
2022/04/13 09:29:06;;;;;;;;;;;;;;;16.51;59.15918;101681;;;;-79
2022/04/13 09:34:06;;;;;;;;;;;;;;;16.55;59.25293;101679.3;;;;-80
2022/04/13 09:37:08;;;;;;;8.7;3.2;;;;;;;;;;;;;-80
2022/04/13 09:39:08;;;;;;;;;;;;;;;16.6;59.45313;101692.5;;;;-81
2022/04/13 09:44:06;;;;;;;;;;;;;;;16.67;59.46191;101698.8;;;;-80
2022/04/13 09:49:20;;;;;;;;;;;;;;;16.7;59.36426;101708.9;;;;-79
2022/04/13 09:54:12;;;;;;;;;;;;;;;16.7;59.26367;101712.6;;;;-79
2022/04/13 09:59:07;;;;;;;;;;;;;;;16.74;59.41406;101723.6;;;;-79
2022/04/13 10:04:07;;;;;;;;;;;;;;;16.78;59.52344;101724.3;;;;-79
2022/04/13 10:07:21;;;;;;;8.7;3.2;;;;;;;;;;;;;-80
2022/04/13 10:09:10;;;;;;;;;;;;;;;16.84;59.63281;101732;;;;-81
2022/04/13 10:14:09;;;;;;;;;;;;;;;16.87;59.42285;101739.2;;;;-79
2022/04/13 10:19:06;;;;;;;;;;;;;;;16.92;59.42773;101741.2;;;;-78
2022/04/13 10:24:08;;;;;;;;;;;;;;;17;59.39355;101741.7;;;;-80
2022/04/13 10:29:09;;;;;;;;;;;;;;;17.08;59.34766;101750.4;;;;-79
2022/04/13 10:34:06;;;;;;;;;;;;;;;17.14;59.21973;101761.3;;;;-79
2022/04/13 10:37:13;;;;;;;10.1;3.2;;;;;;;;;;;;;-79
2022/04/13 10:39:06;;;;;;;;;;;;;;;17.11;59.1377;101764.1;;;;-79
2022/04/13 10:44:06;;;;;;;;;;;;;;;17.08;59.16797;101767;;;;-78
2022/04/13 10:49:10;;;;;;;;;;;;;;;17.05;59.2666;101775.6;;;;-77
2022/04/13 10:54:07;;;;;;;;;;;;;;;17;59.28125;101765.3;;;;-79
2022/04/13 10:59:11;;;;;;;;;;;;;;;16.95;59.4668;101767.8;;;;-80
2022/04/13 11:04:09;;;;;;;;;;;;;;;16.87;59.46582;101778.6;;;;-78
2022/04/13 11:07:14;;;;;;;7.9;2.9;;;;;;;;;;;;;-81
2022/04/13 11:09:10;;;;;;;;;;;;;;;16.79;59.61523;101783.7;;;;-80
2022/04/13 11:14:16;;;;;;;;;;;;;;;16.78;59.72656;101787.8;;;;-80
2022/04/13 11:19:17;;;;;;;;;;;;;;;16.81;59.93262;101782.6;;;;-81
2022/04/13 11:24:06;;;;;;;;;;;;;;;16.86;60.14355;101774.4;;;;-79
2022/04/13 11:29:21;;;;;;;;;;;;;;;16.97;60.33887;101779.1;;;;-80
2022/04/13 11:34:10;;;;;;;;;;;;;;;17.13;60.15625;101783.2;;;;-81
2022/04/13 11:37:18;;;;;;;8.5;3.2;;;;;;;;;;;;;-79
2022/04/13 11:39:07;;;;;;;;;;;;;;;17.28;59.84961;101785.2;;;;-81
2022/04/13 11:44:19;;;;;;;;;;;;;;;17.45;59.52246;101788.4;;;;-81
2022/04/13 11:49:08;;;;;;;;;;;;;;;17.61;59.1582;101798.1;;;;-82
2022/04/13 11:54:25;;;;;;;;;;;;;;;17.77;58.76172;101804.5;;;;-79
2022/04/13 11:59:08;;;;;;;;;;;;;;;17.93;58.56836;101807.5;;;;-79
2022/04/13 12:04:07;;;;;;;;;;;;;;;18.17;58.44043;101808.3;;;;-80
2022/04/13 12:07:19;;;;;;;7.4;2.6;;;;;;;;;;;;;-80
2022/04/13 12:09:15;;;;;;;;;;;;;;;18.39;58.32227;101811.1;;;;-82
2022/04/13 12:14:06;;;;;;;;;;;;;;;18.6;57.92969;101814.1;;;;-78
2022/04/13 12:19:07;;;;;;;;;;;;;;;18.79;57.73926;101818.2;;;;-80
2022/04/13 12:24:09;;;;;;;;;;;;;;;18.97;57.45605;101824.5;;;;-79
2022/04/13 12:29:16;;;;;;;;;;;;;;;19.12;57.42969;101811.9;;;;-79
2022/04/13 12:34:06;;;;;;;;;;;;;;;19.23;57.24023;101812.9;;;;-79
2022/04/13 12:37:24;;;;;;;6.5;2.2;;;;;;;;;;;;;-79
2022/04/13 12:39:06;;;;;;;;;;;;;;;19.37;57.22363;101807.2;;;;-80
2022/04/13 12:44:07;;;;;;;;;;;;;;;19.52;57.1416;101809.2;;;;-79
2022/04/13 12:49:07;;;;;;;;;;;;;;;19.71;56.90234;101812.2;;;;-80
2022/04/13 12:54:08;;;;;;;;;;;;;;;19.92;56.78223;101823.8;;;;-78
2022/04/13 12:59:07;;;;;;;;;;;;;;;20.15;56.51465;101825.2;;;;-80
2022/04/13 13:04:15;;;;;;;;;;;;;;;20.34;56.65234;101814.5;;;;-78
2022/04/13 13:07:40;;;;;;;5.2;2.1;;;;;;;;;;;;;-80
2022/04/13 13:09:07;;;;;;;;;;;;;;;20.6;56.70898;101819.4;;;;-79
2022/04/13 13:14:33;;;;;;;;;;;;;;;20.83;56.46387;101823.5;;;;-75
2022/04/13 13:19:16;;;;;;;;;;;;;;;21.1;56.73828;101830.3;;;;-75
2022/04/13 13:24:07;;;;;;;;;;;;;;;21.46;56.98926;101812.6;;;;-75
2022/04/13 13:29:07;;;;;;;;;;;;;;;21.84;56.29492;101818.1;;;;-75
2022/04/13 13:34:07;;;;;;;;;;;;;;;22.18;56.50977;101824;;;;-76
2022/04/13 13:37:38;;;;;;;5.4;1.6;;;;;;;;;;;;;-75
2022/04/13 13:39:12;;;;;;;;;;;;;;;22.58;56.0332;101823.5;;;;-78
2022/04/13 13:44:06;;;;;;;;;;;;;;;22.94;55.36719;101830.8;;;;-75
2022/04/13 13:49:06;;;;;;;;;;;;;;;23.16;54.7168;101827.7;;;;-75
2022/04/13 13:54:08;;;;;;;;;;;;;;;23.31;54.40332;101828.1;;;;-76
2022/04/13 13:59:07;;;;;;;;;;;;;;;23.32;54.38086;101838.2;;;;-75
2022/04/13 14:04:06;;;;;;;;;;;;;;;23.36;54.55762;101828.7;;;;-75
2022/04/13 14:07:31;;;;;;;6.5;1.5;;;;;;;;;;;;;-75
2022/04/13 14:09:08;;;;;;;;;;;;;;;23.43;54.45215;101834;;;;-77
2022/04/13 14:14:06;;;;;;;;;;;;;;;23.53;54.02734;101835.5;;;;-75
2022/04/13 14:19:06;;;;;;;;;;;;;;;23.53;53.47754;101842.6;;;;-79
2022/04/13 14:24:06;;;;;;;;;;;;;;;23.52;53.53223;101839.5;;;;-75
2022/04/13 14:29:06;;;;;;;;;;;;;;;23.51;53.22168;101832.7;;;;-76
2022/04/13 14:34:06;;;;;;;;;;;;;;;23.43;53.84375;101828.8;;;;-75
2022/04/13 14:37:34;;;;;;;3.4;1.1;;;;;;;;;;;;;-75
2022/04/13 14:39:06;;;;;;;;;;;;;;;23.32;53.6123;101832.6;;;;-75
2022/04/13 14:44:09;;;;;;;;;;;;;;;23.23;53.45215;101823.2;;;;-75
2022/04/13 14:49:06;;;;;;;;;;;;;;;23.17;53.04297;101817.7;;;;-75
2022/04/13 14:54:13;;;;;;;;;;;;;;;23.13;53.15332;101815.2;;;;-76
2022/04/13 14:59:26;;;;;;;;;;;;;;;;;;;;;
2022/04/13 15:04:11;;;;;;;;;;;;;;;23.09;52.55078;101824.1;;;;-75
2022/04/13 15:07:39;;;;;;;3;1;;;;;;;;;;;;;-75
2022/04/13 15:09:09;;;;;;;;;;;;;;;23.12;52.46191;101827.2;;;;-76
2022/04/13 15:14:07;;;;;;;;;;;;;;;23.15;52.4668;101812.8;;;;-75
2022/04/13 15:19:06;;;;;;;;;;;;;;;23.13;52.45313;101809.8;;;;-75
2022/04/13 15:24:06;;;;;;;;;;;;;;;23.08;52.62012;101800.3;;;;-77
2022/04/13 15:29:06;;;;;;;;;;;;;;;23.08;52.50488;101800.6;;;;-76
2022/04/13 15:34:06;;;;;;;;;;;;;;;23.16;51.99707;101799.6;;;;-76
2022/04/13 15:37:42;;;;;;;2.4;0.9;;;;;;;;;;;;;-75
2022/04/13 15:39:06;;;;;;;;;;;;;;;23.26;52.30664;101802.1;;;;-76
2022/04/13 15:44:06;;;;;;;;;;;;;;;23.25;52.20215;101819;;;;-77
2022/04/13 15:49:06;;;;;;;;;;;;;;;23.11;52.48535;101818.9;;;;-81
2022/04/13 15:54:07;;;;;;;;;;;;;;;22.93;52.61328;101820.7;;;;-81
2022/04/13 15:59:09;;;;;;;;;;;;;;;22.81;53.06836;101818.2;;;;-80
2022/04/13 16:04:10;;;;;;;;;;;;;;;22.65;53.0625;101819.5;;;;-81
2022/04/13 16:07:47;;;;;;;4.7;1.1;;;;;;;;;;;;;-77
2022/04/13 16:09:06;;;;;;;;;;;;;;;22.48;53.12109;101824.2;;;;-79
2022/04/13 16:14:06;;;;;;;;;;;;;;;22.3;53.21387;101826.5;;;;-79
2022/04/13 16:19:07;;;;;;;;;;;;;;;22.1;53.22559;101836.3;;;;-81
2022/04/13 16:24:07;;;;;;;;;;;;;;;21.88;53.26758;101834;;;;-79
2022/04/13 16:29:08;;;;;;;;;;;;;;;21.65;53.37793;101835.8;;;;-79
2022/04/13 16:34:08;;;;;;;;;;;;;;;21.44;53.59277;101843.1;;;;-81
2022/04/13 16:37:48;;;;;;;2.9;1.2;;;;;;;;;;;;;-80
2022/04/13 16:39:06;;;;;;;;;;;;;;;21.22;53.73828;101848;;;;-81
2022/04/13 16:44:06;;;;;;;;;;;;;;;21;53.88184;101856.5;;;;-80
2022/04/13 16:49:06;;;;;;;;;;;;;;;20.8;53.89258;101859.8;;;;-80
2022/04/13 16:54:06;;;;;;;;;;;;;;;20.58;53.98047;101868.5;;;;-80
2022/04/13 16:59:06;;;;;;;;;;;;;;;20.37;54.32031;101869.3;;;;-80
2022/04/13 17:04:06;;;;;;;;;;;;;;;20.15;54.46387;101870.1;;;;-81
2022/04/13 17:07:51;;;;;;;3.4;1.3;;;;;;;;;;;;;-79
2022/04/13 17:09:06;;;;;;;;;;;;;;;19.92;54.65234;101875.1;;;;-80
2022/04/13 17:14:06;;;;;;;;;;;;;;;19.71;54.86426;101883.1;;;;-82
2022/04/13 17:19:08;;;;;;;;;;;;;;;19.5;54.9082;101885.7;;;;-80
2022/04/13 17:24:06;;;;;;;;;;;;;;;19.29;54.99609;101893.8;;;;-81
2022/04/13 17:29:06;;;;;;;;;;;;;;;19.08;55.06055;101897.5;;;;-82
2022/04/13 17:34:10;;;;;;;;;;;;;;;18.86;55.06836;101908;;;;-79
2022/04/13 17:37:54;;;;;;;3.4;1.4;;;;;;;;;;;;;-79
2022/04/13 17:39:06;;;;;;;;;;;;;;;18.63;55.15234;101910.2;;;;-80
2022/04/13 17:44:06;;;;;;;;;;;;;;;18.39;55.24805;101916.2;;;;-80
2022/04/13 17:49:06;;;;;;;;;;;;;;;18.18;55.25586;101922.9;;;;-80
2022/04/13 17:54:09;;;;;;;;;;;;;;;17.95;55.34082;101918.4;;;;-78
2022/04/13 17:59:06;;;;;;;;;;;;;;;17.74;55.43848;101924.9;;;;-79
2022/04/13 18:04:07;;;;;;;;;;;;;;;17.54;55.62793;101924.7;;;;-80
2022/04/13 18:07:57;;;;;;;3.5;1.2;;;;;;;;;;;;;-80
2022/04/13 18:09:06;;;;;;;;;;;;;;;17.33;55.72754;101923.8;;;;-79
2022/04/13 18:14:06;;;;;;;;;;;;;;;17.14;55.86035;101924.5;;;;-81
2022/04/13 18:19:09;;;;;;;;;;;;;;;16.94;55.86914;101927.3;;;;-81
2022/04/13 18:24:06;;;;;;;;;;;;;;;16.74;55.9248;101930.9;;;;-82
2022/04/13 18:29:06;;;;;;;;;;;;;;;16.53;56.16895;101930.4;;;;-80
2022/04/13 18:34:05;;;;;;;;;;;;;;;16.32;56.27832;101933.2;;;;-81
2022/04/13 18:38:00;;;;;;;2.5;1.2;;;;;;;;;;;;;-80
2022/04/13 18:39:18;;;;;;;;;;;;;;;16.12;56.52344;101944;;;;-82
2022/04/13 18:44:06;;;;;;;;;;;;;;;15.92;56.70117;101942.5;;;;-80
2022/04/13 18:49:06;;;;;;;;;;;;;;;15.71;56.94434;101951.5;;;;-81
2022/04/13 18:54:06;;;;;;;;;;;;;;;15.51;57.08691;101959.9;;;;-82
2022/04/13 18:59:17;;;;;;;;;;;;;;;15.29;57.29492;101962.5;;;;-80
2022/04/13 19:04:06;;;;;;;;;;;;;;;15.11;57.58691;101976.6;;;;-80
2022/04/13 19:08:04;;;;;;;3.4;1.2;;;;;;;;;;;;;-80
2022/04/13 19:09:07;;;;;;;;;;;;;;;14.93;57.86719;101983.9;;;;-81
2022/04/13 19:14:06;;;;;;;;;;;;;;;14.73;58.13477;101988.6;;;;-81
2022/04/13 19:19:06;;;;;;;;;;;;;;;14.56;58.52637;101992.9;;;;-81
2022/04/13 19:24:06;;;;;;;;;;;;;;;14.38;58.72852;102003.2;;;;-81
2022/04/13 19:29:06;;;;;;;;;;;;;;;14.23;58.93262;102001.2;;;;-80
2022/04/13 19:34:06;;;;;;;;;;;;;;;14.08;59.20508;102007.1;;;;-79
2022/04/13 19:38:03;;;;;;;2.5;1.3;;;;;;;;;;;;;-79
2022/04/13 19:39:06;;;;;;;;;;;;;;;13.94;59.37695;102006.9;;;;-81
2022/04/13 19:44:07;;;;;;;;;;;;;;;13.81;59.57031;102016.6;;;;-83
2022/04/13 19:49:06;;;;;;;;;;;;;;;13.69;59.70117;102024.9;;;;-80
2022/04/13 19:54:06;;;;;;;;;;;;;;;13.58;59.96582;102036.2;;;;-80
2022/04/13 19:59:07;;;;;;;;;;;;;;;13.45;60.04883;102041.9;;;;-81
2022/04/13 20:04:06;;;;;;;;;;;;;;;13.35;60.27051;102048.8;;;;-82
2022/04/13 20:08:05;;;;;;;3.2;1.5;;;;;;;;;;;;;-79
2022/04/13 20:09:06;;;;;;;;;;;;;;;13.25;60.33496;102052.8;;;;-78
2022/04/13 20:14:06;;;;;;;;;;;;;;;13.13;60.46484;102051.8;;;;-79
2022/04/13 20:19:13;;;;;;;;;;;;;;;13.03;60.67383;102061.3;;;;-80
2022/04/13 20:24:06;;;;;;;;;;;;;;;12.92;60.93945;102054.6;;;;-81
2022/04/13 20:29:06;;;;;;;;;;;;;;;12.83;61.00488;102060.3;;;;-82
2022/04/13 20:34:07;;;;;;;;;;;;;;;12.74;61.09473;102061.7;;;;-81
2022/04/13 20:38:09;;;;;;;4.3;1.9;;;;;;;;;;;;;-79
2022/04/13 20:39:05;;;;;;;;;;;;;;;12.67;61.17383;102062;;;;-80
2022/04/13 20:44:09;;;;;;;;;;;;;;;12.6;61.33105;102061.1;;;;-82
2022/04/13 20:49:08;;;;;;;;;;;;;;;12.52;61.56641;102066.3;;;;-78
2022/04/13 20:54:06;;;;;;;;;;;;;;;12.45;61.65625;102062.7;;;;-80
2022/04/13 20:59:06;;;;;;;;;;;;;;;12.38;61.90234;102062.1;;;;-81
2022/04/13 21:04:08;;;;;;;;;;;;;;;12.32;62.16309;102057.8;;;;-80
2022/04/13 21:08:15;;;;;;;5.6;2.5;;;;;;;;;;;;;-82
2022/04/13 21:09:09;;;;;;;;;;;;;;;12.26;62.27734;102059.1;;;;-81
2022/04/13 21:14:06;;;;;;;;;;;;;;;12.22;62.4502;102063.3;;;;-79
2022/04/13 21:19:06;;;;;;;;;;;;;;;12.17;62.66699;102062.6;;;;-79
2022/04/13 21:24:06;;;;;;;;;;;;;;;12.11;62.81445;102062.9;;;;-79
2022/04/13 21:29:06;;;;;;;;;;;;;;;12.06;62.80762;102068.6;;;;-81
2022/04/13 21:34:06;;;;;;;;;;;;;;;12.01;62.86719;102070;;;;-79
2022/04/13 21:38:09;;;;;;;5.7;2.8;;;;;;;;;;;;;-80
2022/04/13 21:39:08;;;;;;;;;;;;;;;11.98;62.93945;102069.1;;;;-79
2022/04/13 21:44:05;;;;;;;;;;;;;;;11.95;62.79102;102072.6;;;;-79
2022/04/13 21:49:06;;;;;;;;;;;;;;;11.89;62.82617;102072.7;;;;-78
2022/04/13 21:54:09;;;;;;;;;;;;;;;11.83;62.71777;102071.6;;;;-80
2022/04/13 21:59:07;;;;;;;;;;;;;;;11.77;62.93164;102074.1;;;;-80
2022/04/13 22:04:06;;;;;;;;;;;;;;;11.71;62.81152;102076.5;;;;-79
2022/04/13 22:08:11;;;;;;;7.6;2.9;;;;;;;;;;;;;-80
2022/04/13 22:09:06;;;;;;;;;;;;;;;11.66;62.83789;102090.5;;;;-80
2022/04/13 22:14:06;;;;;;;;;;;;;;;11.59;62.77344;102089.6;;;;-80
2022/04/13 22:19:06;;;;;;;;;;;;;;;11.52;62.97559;102080.6;;;;-80
2022/04/13 22:24:06;;;;;;;;;;;;;;;11.45;62.8418;102079.9;;;;-78
2022/04/13 22:29:07;;;;;;;;;;;;;;;11.36;62.77441;102081.6;;;;-78
2022/04/13 22:34:05;;;;;;;;;;;;;;;11.3;62.98926;102073;;;;-78
2022/04/13 22:38:12;;;;;;;6.9;3;;;;;;;;;;;;;-79
2022/04/13 22:39:08;;;;;;;;;;;;;;;11.22;63.12109;102065.3;;;;-79
2022/04/13 22:44:06;;;;;;;;;;;;;;;11.16;63.28027;102066.5;;;;-80
2022/04/13 22:49:06;;;;;;;;;;;;;;;11.12;63.36328;102066.4;;;;-79
2022/04/13 22:54:06;;;;;;;;;;;;;;;11.05;63.63184;102064.1;;;;-80
2022/04/13 22:59:06;;;;;;;;;;;;;;;11.02;63.61523;102057.3;;;;-80
2022/04/13 23:04:06;;;;;;;;;;;;;;;10.99;63.97949;102055.7;;;;-79
2022/04/13 23:08:14;;;;;;;7.5;3;;;;;;;;;;;;;-78
2022/04/13 23:09:06;;;;;;;;;;;;;;;10.95;63.91699;102049.2;;;;-80
2022/04/13 23:14:06;;;;;;;;;;;;;;;10.92;64.21289;102043.5;;;;-78
2022/04/13 23:19:06;;;;;;;;;;;;;;;10.88;63.83984;102044.6;;;;-78
2022/04/13 23:24:06;;;;;;;;;;;;;;;10.85;64.03613;102044.7;;;;-78
2022/04/13 23:29:07;;;;;;;;;;;;;;;10.8;63.92773;102043.1;;;;-79
2022/04/13 23:34:06;;;;;;;;;;;;;;;10.76;64.25684;102044;;;;-80
2022/04/13 23:38:15;;;;;;;7.6;3.2;;;;;;;;;;;;;-77
2022/04/13 23:39:06;;;;;;;;;;;;;;;10.71;64.31641;102043.4;;;;-78
2022/04/13 23:44:06;;;;;;;;;;;;;;;10.65;64.34082;102038.3;;;;-79
2022/04/13 23:49:06;;;;;;;;;;;;;;;10.61;64.70117;102034.1;;;;-81
2022/04/13 23:54:06;;;;;;;;;;;;;;;10.56;65.02637;102033;;;;-79
2022/04/13 23:59:06;;;;;;;;;;;;;;;10.51;64.95313;102024.3;;;;-79
